Time;durP1;ratioP1;P1;durP2;ratioP2;P2;SDS_P1;SDS_P2;PMS_P1;PMS_P2;Temp;Humidity;BMP_temperature;BMP_pressure;BME280_temperature;BME280_humidity;BME280_pressure;Samples;Min_cycle;Max_cycle;Signal;HPM_P1;HPM_P2
2021/09/23 00:00:27;;;;;;;0.55;0.10;;;;;;;19.15;60.12;101087.25;5033753;28;20060;-72
2021/09/23 00:05:22;;;;;;;0.50;0.20;;;;;;;19.12;59.60;101087.56;5033858;28;20441;-73
2021/09/23 00:07:50;;;;;;;0.45;0.13;;;;;;;19.11;62.50;101075.81;5034218;28;20112;-72
2021/09/23 00:10:22;;;;;;;0.40;0.20;;;;;;;19.10;60.88;101073.28;5033499;28;20033;-72
2021/09/23 00:12:48;;;;;;;0.52;0.10;;;;;;;19.08;61.21;101065.28;5033856;28;20029;-72
2021/09/23 00:15:15;;;;;;;0.45;0.10;;;;;;;19.08;61.38;101058.97;5016041;28;20025;-72
2021/09/23 00:17:49;;;;;;;0.63;0.20;;;;;;;19.10;59.81;101051.47;5033872;28;20118;-72
2021/09/23 00:20:26;;;;;;;0.60;0.10;;;;;;;19.11;59.24;101047.72;5033443;28;20026;-72
2021/09/23 00:22:52;;;;;;;0.20;0.20;;;;;;;19.10;60.21;101046.03;5033980;28;20380;-72
2021/09/23 00:25:19;;;;;;;0.15;0.00;;;;;;;19.11;59.06;101034.94;5033421;28;20021;-72
2021/09/23 00:27:46;;;;;;;0.35;0.20;;;;;;;19.11;59.85;101017.75;5039546;28;20358;-72
2021/09/23 00:30:12;;;;;;;0.10;0.10;;;;;;;19.05;59.96;101011.13;5033215;28;20037;-72
2021/09/23 00:32:38;;;;;;;0.52;0.22;;;;;;;19.02;60.94;101006.03;5033389;28;20034;-72
2021/09/23 00:35:07;;;;;;;1.48;0.35;;;;;;;19.05;59.92;101004.81;5033017;28;20112;-72
2021/09/23 00:37:32;;;;;;;0.70;0.30;;;;;;;19.09;60.44;100995.28;5020649;28;20037;-72
2021/09/23 00:39:58;;;;;;;0.13;0.10;;;;;;;19.06;59.63;100988.28;5013949;28;20030;-72
2021/09/23 00:42:25;;;;;;;0.40;0.20;;;;;;;19.03;60.35;100974.16;5013523;28;20025;-72
2021/09/23 00:44:55;;;;;;;0.17;0.15;;;;;;;19.05;60.56;100972.97;5013736;28;20028;-72
2021/09/23 00:47:21;;;;;;;0.20;0.10;;;;;;;19.06;59.89;100968.38;5013493;28;20049;-72
2021/09/23 00:50:03;;;;;;;0.10;0.10;;;;;;;19.07;59.16;100951.84;5022179;28;20049;-71
2021/09/23 00:52:31;;;;;;;1.95;0.43;;;;;;;19.04;60.67;100948.63;5013822;28;20101;-72
2021/09/23 00:54:57;;;;;;;0.10;0.10;;;;;;;19.01;60.40;100946.25;5013309;28;20025;-72
2021/09/23 00:57:24;;;;;;;0.75;0.17;;;;;;;19.00;59.94;100936.38;5013544;28;20030;-72
2021/09/23 00:59:54;;;;;;;0.93;0.20;;;;;;;19.05;60.81;100936.69;5013325;28;20021;-72
2021/09/23 01:05:42;;;;;;;0.68;0.20;;;;;;;19.00;59.96;100920.88;5030249;28;20078;-72
2021/09/23 01:08:08;;;;;;;0.47;0.30;;;;;;;19.04;59.46;100910.47;5013693;28;20021;-72
2021/09/23 01:10:34;;;;;;;0.60;0.10;;;;;;;19.00;60.67;100920.03;5015789;28;20511;-72
2021/09/23 01:13:00;;;;;;;0.22;0.10;;;;;;;19.03;59.75;100916.97;5013366;28;20022;-72
2021/09/23 01:15:25;;;;;;;0.38;0.20;;;;;;;19.01;59.89;100910.84;5016988;28;20041;-72
2021/09/23 01:17:50;;;;;;;0.30;0.30;;;;;;;19.01;59.93;100905.38;5017085;28;20029;-72
2021/09/23 01:20:18;;;;;;;0.20;0.20;;;;;;;19.03;59.74;100892.44;5017056;28;20030;-72
2021/09/23 01:22:44;;;;;;;0.70;0.20;;;;;;;19.04;59.66;100899.59;5016876;28;20079;-72
2021/09/23 01:25:16;;;;;;;0.20;0.10;;;;;;;19.01;60.43;100898.06;5034255;28;20025;-72
2021/09/23 01:27:42;;;;;;;0.20;0.10;;;;;;;18.98;60.51;100889.34;5038455;28;20156;-71
2021/09/23 01:30:08;;;;;;;1.33;0.55;;;;;;;19.03;60.54;100887.84;5044576;28;20020;-72
2021/09/23 01:32:34;;;;;;;0.25;0.10;;;;;;;19.00;60.02;100881.88;5018586;28;20030;-72
2021/09/23 01:34:59;;;;;;;0.38;0.20;;;;;;;19.01;60.44;100875.41;5036346;28;20056;-67
2021/09/23 01:37:26;;;;;;;0.10;0.10;;;;;;;19.01;58.94;100868.09;5036073;28;20119;-67
2021/09/23 01:39:51;;;;;;;0.52;0.20;;;;;;;18.99;60.65;100853.78;5036156;28;20549;-67
2021/09/23 01:42:17;;;;;;;0.93;0.15;;;;;;;19.04;59.41;100845.09;5036209;28;20022;-67
2021/09/23 01:44:42;;;;;;;0.20;0.10;;;;;;;19.02;60.61;100841.69;5036164;28;20033;-67
2021/09/23 01:47:08;;;;;;;0.20;0.20;;;;;;;18.99;59.14;100836.59;5036039;28;20060;-67
2021/09/23 01:49:33;;;;;;;0.35;0.10;;;;;;;18.97;60.69;100825.00;5036570;28;20104;-67
2021/09/23 01:51:59;;;;;;;0.10;0.10;;;;;;;18.92;60.08;100823.66;5035951;28;20421;-67
2021/09/23 01:54:25;;;;;;;0.10;0.10;;;;;;;18.94;60.27;100807.97;5035954;28;20029;-67
2021/09/23 01:56:53;;;;;;;1.17;0.20;;;;;;;18.96;60.94;100804.22;5038087;28;20029;-65
2021/09/23 01:59:24;;;;;;;0.10;0.10;;;;;;;18.99;60.41;100793.00;5037051;28;20029;-67
2021/09/23 02:01:49;;;;;;;0.10;0.10;;;;;;;18.97;59.46;100795.88;5035940;28;20031;-67
2021/09/23 02:04:16;;;;;;;0.20;0.10;;;;;;;18.95;60.33;100781.59;5035943;28;20032;-67
2021/09/23 02:06:42;;;;;;;0.30;0.22;;;;;;;18.93;61.10;100768.16;5035692;28;20033;-67
2021/09/23 02:09:07;;;;;;;0.10;0.10;;;;;;;18.97;59.93;100765.06;5018997;28;20018;-67
2021/09/23 02:11:32;;;;;;;0.43;0.10;;;;;;;19.03;58.66;100761.66;5015620;28;20026;-67
2021/09/23 02:13:58;;;;;;;0.40;0.10;;;;;;;18.93;59.28;100751.81;5015754;28;20037;-67
2021/09/23 02:16:23;;;;;;;1.13;0.13;;;;;;;18.96;59.50;100738.84;5015346;28;20037;-67
2021/09/23 02:18:48;;;;;;;0.25;0.25;;;;;;;18.91;59.18;100726.63;4999104;28;20377;-66
2021/09/23 02:21:14;;;;;;;0.50;0.43;;;;;;;18.90;60.41;100724.06;5017188;28;20021;-67
2021/09/23 02:23:39;;;;;;;0.13;0.13;;;;;;;18.93;59.05;100716.38;5020838;28;20026;-67
2021/09/23 02:26:05;;;;;;;0.95;0.28;;;;;;;18.96;59.07;100717.06;5050174;28;20022;-67
2021/09/23 02:28:32;;;;;;;0.38;0.10;;;;;;;18.94;60.09;100707.19;5052048;28;20029;-67
2021/09/23 02:30:57;;;;;;;0.00;0.00;;;;;;;18.93;59.75;100708.22;5017483;28;20021;-67
2021/09/23 02:33:22;;;;;;;0.08;0.08;;;;;;;18.92;59.86;100694.78;5034808;28;20033;-67
2021/09/23 02:35:48;;;;;;;0.40;0.20;;;;;;;19.00;58.93;100683.00;5035520;28;20040;-67
2021/09/23 02:38:13;;;;;;;0.93;0.20;;;;;;;18.89;59.36;100674.19;5034889;28;20033;-67
2021/09/23 02:40:39;;;;;;;0.22;0.10;;;;;;;18.92;60.15;100668.38;5034994;28;20025;-67
2021/09/23 02:43:04;;;;;;;0.30;0.10;;;;;;;18.93;58.69;100669.22;5035088;28;20045;-67
2021/09/23 02:45:32;;;;;;;0.38;0.10;;;;;;;18.89;60.30;100660.56;5041392;28;20021;-67
2021/09/23 02:47:57;;;;;;;1.38;0.30;;;;;;;18.88;59.40;100667.06;5034766;28;20021;-68
2021/09/23 02:50:22;;;;;;;0.20;0.10;;;;;;;18.88;60.11;100661.59;5034793;28;20025;-66
2021/09/23 02:52:48;;;;;;;0.15;0.15;;;;;;;18.87;59.12;100642.72;5034535;28;20017;-67
2021/09/23 02:55:13;;;;;;;0.30;0.10;;;;;;;18.87;59.16;100640.84;5034644;28;20025;-67
2021/09/23 02:57:38;;;;;;;0.00;0.00;;;;;;;18.86;59.52;100627.41;5034603;28;20067;-67
2021/09/23 03:00:05;;;;;;;0.43;0.10;;;;;;;18.88;59.96;100607.13;5034786;28;20025;-67
2021/09/23 03:02:30;;;;;;;0.63;0.10;;;;;;;18.88;58.76;100593.50;5034528;28;20040;-67
2021/09/23 03:04:55;;;;;;;0.68;0.10;;;;;;;18.85;58.97;100607.50;5048815;28;20013;-68
2021/09/23 03:07:30;;;;;;;0.10;0.08;;;;;;;18.88;59.79;100582.63;5049353;28;20099;-67
2021/09/23 03:09:56;;;;;;;0.22;0.20;;;;;;;18.83;60.13;100576.03;5039314;28;20029;-67
2021/09/23 03:12:21;;;;;;;0.10;0.03;;;;;;;18.92;57.67;100559.44;5034352;28;20104;-67
2021/09/23 03:14:46;;;;;;;0.98;0.10;;;;;;;18.90;59.60;100560.63;5034462;28;20037;-67
2021/09/23 03:17:12;;;;;;;0.13;0.10;;;;;;;18.91;59.65;100552.28;5034053;28;20397;-67
2021/09/23 03:19:37;;;;;;;0.65;0.20;;;;;;;18.87;59.18;100555.56;5034509;28;20033;-67
2021/09/23 03:22:03;;;;;;;0.10;0.10;;;;;;;18.88;59.49;100547.22;5034122;28;20368;-67
2021/09/23 03:24:28;;;;;;;0.40;0.10;;;;;;;18.86;59.45;100552.00;5034210;28;20376;-67
2021/09/23 03:26:53;;;;;;;0.20;0.10;;;;;;;18.85;58.98;100561.19;5034219;28;20041;-67
2021/09/23 03:29:19;;;;;;;0.55;0.22;;;;;;;18.87;59.02;100548.25;5033964;28;20476;-67
2021/09/23 03:31:44;;;;;;;0.17;0.03;;;;;;;18.88;59.42;100557.25;5036696;28;20064;-65
2021/09/23 03:34:09;;;;;;;0.20;0.10;;;;;;;18.83;59.57;100559.69;5033915;28;20055;-68
2021/09/23 03:36:35;;;;;;;0.47;0.10;;;;;;;18.87;58.65;100561.84;5033771;28;20456;-67
2021/09/23 03:39:00;;;;;;;0.30;0.10;;;;;;;18.88;59.06;100549.94;5033785;28;20067;-68
2021/09/23 03:41:26;;;;;;;0.20;0.08;;;;;;;18.84;59.25;100543.16;5038540;28;20016;-69
2021/09/23 03:43:51;;;;;;;0.03;0.03;;;;;;;18.84;59.13;100534.97;5057765;28;20045;-68
2021/09/23 03:46:17;;;;;;;0.52;0.20;;;;;;;18.87;59.28;100533.78;5036267;28;20029;-67
2021/09/23 03:48:44;;;;;;;0.28;0.15;;;;;;;18.84;59.19;100529.53;5033813;28;20033;-67
2021/09/23 03:51:10;;;;;;;0.40;0.10;;;;;;;18.83;59.53;100533.28;5033742;28;20039;-67
2021/09/23 03:53:38;;;;;;;0.10;0.10;;;;;;;18.85;59.23;100519.50;5033705;28;20061;-68
2021/09/23 03:56:04;;;;;;;0.47;0.10;;;;;;;18.88;58.48;100525.41;5033411;28;20464;-67
2021/09/23 03:58:40;;;;;;;0.08;0.00;;;;;;;18.87;58.88;100528.31;5040945;28;20033;-68
2021/09/23 04:01:06;;;;;;;1.35;0.10;;;;;;;18.88;58.40;100514.53;5033397;28;20464;-67
2021/09/23 04:03:31;;;;;;;0.25;0.10;;;;;;;19.03;59.04;100519.19;5033560;28;20067;-67
2021/09/23 04:05:57;;;;;;;0.25;0.10;;;;;;;19.21;57.50;100508.78;5033582;28;20033;-67
2021/09/23 04:08:22;;;;;;;0.60;0.10;;;;;;;19.32;58.51;100502.91;5033091;28;20040;-67
2021/09/23 04:10:47;;;;;;;1.50;0.20;;;;;;;19.35;58.01;100498.94;5033557;28;20022;-67
2021/09/23 04:13:13;;;;;;;0.32;0.10;;;;;;;19.38;58.47;100483.06;5033209;28;20067;-68
2021/09/23 04:15:38;;;;;;;0.88;0.10;;;;;;;19.48;57.85;100486.38;5033361;28;20026;-67
2021/09/23 04:18:04;;;;;;;0.50;0.20;;;;;;;19.57;58.29;100486.28;5033185;28;20021;-67
2021/09/23 04:20:29;;;;;;;0.35;0.10;;;;;;;19.62;57.87;100479.22;5033417;28;20025;-67
2021/09/23 04:22:55;;;;;;;0.50;0.25;;;;;;;19.63;59.03;100474.63;5033420;28;20021;-67
2021/09/23 04:25:20;;;;;;;0.35;0.10;;;;;;;19.70;59.00;100470.13;5033327;28;20026;-67
2021/09/23 04:27:46;;;;;;;0.75;0.05;;;;;;;19.72;58.24;100466.16;5036463;28;20104;-66
2021/09/23 04:30:11;;;;;;;0.98;0.15;;;;;;;19.74;58.52;100468.72;5033222;28;20084;-67
2021/09/23 04:32:37;;;;;;;0.60;0.00;;;;;;;19.72;59.76;100457.16;5015593;28;20503;-67
2021/09/23 04:35:03;;;;;;;0.65;0.10;;;;;;;19.78;59.10;100450.91;5032977;28;20045;-66
2021/09/23 04:37:28;;;;;;;0.00;0.00;;;;;;;19.77;60.07;100444.63;5024154;28;20461;-68
2021/09/23 04:39:53;;;;;;;0.20;0.10;;;;;;;19.79;58.94;100436.25;5013332;28;20051;-67
2021/09/23 04:42:19;;;;;;;0.40;0.10;;;;;;;19.79;58.66;100436.25;5013203;28;20472;-67
2021/09/23 04:44:44;;;;;;;0.68;0.20;;;;;;;19.81;60.07;100439.63;5013369;28;20465;-67
2021/09/23 04:47:10;;;;;;;0.20;0.10;;;;;;;19.84;60.66;100422.91;4995978;28;20045;-63
2021/09/23 04:49:35;;;;;;;0.40;0.10;;;;;;;19.82;61.79;100424.97;5018544;28;20030;-67
2021/09/23 04:52:01;;;;;;;0.93;0.40;;;;;;;19.86;59.41;100420.81;5016978;28;20701;-67
2021/09/23 04:54:42;;;;;;;1.45;0.10;;;;;;;19.85;60.25;100416.41;5030257;28;20010;-68
2021/09/23 04:57:09;;;;;;;0.75;0.10;;;;;;;19.89;59.40;100400.50;5037184;28;20021;-67
2021/09/23 04:59:34;;;;;;;0.28;0.03;;;;;;;19.85;59.81;100396.47;5017054;28;20045;-67
2021/09/23 05:02:00;;;;;;;0.50;0.22;;;;;;;19.93;60.16;100377.25;5017143;28;20481;-67
2021/09/23 05:04:25;;;;;;;0.32;0.10;;;;;;;19.95;59.97;100370.53;5016743;28;20022;-67
2021/09/23 05:06:54;;;;;;;0.57;0.00;;;;;;;19.94;61.50;100351.66;5016925;28;20380;-67
2021/09/23 05:09:19;;;;;;;0.32;0.08;;;;;;;19.94;60.07;100332.53;5016758;28;20539;-67
2021/09/23 05:11:45;;;;;;;0.35;0.10;;;;;;;19.97;60.04;100335.72;5016526;28;20025;-67
2021/09/23 05:14:17;;;;;;;0.20;0.10;;;;;;;20.01;58.76;100328.88;5022739;28;20115;-67
2021/09/23 05:16:43;;;;;;;0.10;0.10;;;;;;;19.98;59.33;100321.03;5017054;28;20030;-67
2021/09/23 05:19:10;;;;;;;0.57;0.10;;;;;;;19.97;59.77;100313.91;5033191;28;20104;-67
2021/09/23 05:21:36;;;;;;;0.10;0.08;;;;;;;19.97;60.56;100305.72;5036607;28;20025;-67
2021/09/23 05:24:01;;;;;;;0.20;0.10;;;;;;;19.95;61.16;100299.63;5036421;28;20025;-67
2021/09/23 05:26:26;;;;;;;0.55;0.10;;;;;;;19.98;59.18;100282.84;5036097;28;20717;-67
2021/09/23 05:28:52;;;;;;;0.73;0.20;;;;;;;19.96;60.64;100274.03;5036462;28;20022;-67
2021/09/23 05:31:18;;;;;;;1.67;0.10;;;;;;;19.97;61.33;100258.50;5037531;28;20516;-65
2021/09/23 05:33:44;;;;;;;0.47;0.00;;;;;;;20.04;59.68;100257.53;5059870;28;20064;-70
2021/09/23 05:36:10;;;;;;;0.10;0.10;;;;;;;20.09;60.12;100246.84;5056651;28;20044;-68
2021/09/23 05:38:35;;;;;;;0.38;0.10;;;;;;;20.02;59.63;100251.44;5035917;28;20021;-68
2021/09/23 05:41:01;;;;;;;0.05;0.00;;;;;;;20.04;61.28;100248.50;5041010;28;20108;-67
2021/09/23 05:43:27;;;;;;;0.17;0.03;;;;;;;20.09;60.04;100233.22;5036015;28;20021;-67
2021/09/23 05:45:54;;;;;;;0.20;0.20;;;;;;;20.14;60.77;100232.63;5035987;28;20412;-68
2021/09/23 05:48:20;;;;;;;0.50;0.22;;;;;;;20.11;60.78;100222.09;5035892;28;20028;-68
2021/09/23 05:50:45;;;;;;;0.20;0.13;;;;;;;20.13;60.02;100214.56;5035740;28;20050;-68
2021/09/23 05:53:10;;;;;;;0.35;0.00;;;;;;;20.14;61.29;100211.63;5018017;28;20368;-67
2021/09/23 05:55:36;;;;;;;0.10;0.10;;;;;;;20.14;60.55;100206.16;5035617;28;20367;-68
2021/09/23 05:58:03;;;;;;;0.60;0.30;;;;;;;20.16;59.66;100205.16;5035403;28;20037;-67
2021/09/23 06:00:28;;;;;;;1.95;0.20;;;;;;;20.19;60.16;100196.56;5017163;28;20356;-68
2021/09/23 06:02:54;;;;;;;0.85;0.10;;;;;;;20.20;60.33;100182.72;5040629;28;20033;-67
2021/09/23 06:05:19;;;;;;;0.55;0.13;;;;;;;20.24;60.25;100172.25;5035053;28;20100;-68
2021/09/23 06:07:46;;;;;;;0.52;0.10;;;;;;;20.17;59.96;100157.72;5034438;28;20037;-68
2021/09/23 06:10:12;;;;;;;0.10;0.10;;;;;;;20.12;59.92;100161.88;5034158;28;20049;-67
2021/09/23 06:12:38;;;;;;;0.20;0.20;;;;;;;20.12;59.49;100158.28;5034680;28;20029;-67
2021/09/23 06:15:05;;;;;;;0.10;0.00;;;;;;;20.08;61.76;100146.09;5035086;28;20021;-67
2021/09/23 06:17:30;;;;;;;0.38;0.10;;;;;;;20.10;61.10;100141.28;5035273;28;20032;-67
2021/09/23 06:19:55;;;;;;;0.30;0.10;;;;;;;20.10;60.93;100133.94;5035863;28;20025;-67
2021/09/23 06:22:21;;;;;;;1.85;0.10;;;;;;;20.13;60.19;100139.00;5037746;28;20025;-67
2021/09/23 06:24:46;;;;;;;0.28;0.10;;;;;;;20.20;59.19;100154.59;5038045;28;20033;-67
2021/09/23 06:27:12;;;;;;;1.02;0.28;;;;;;;20.28;59.40;100154.41;5034251;28;20029;-67
2021/09/23 06:29:37;;;;;;;0.47;0.10;;;;;;;20.26;59.62;100149.16;5036865;28;20032;-68
2021/09/23 06:32:03;;;;;;;0.65;0.30;;;;;;;20.29;60.30;100147.91;5037075;28;20025;-69
2021/09/23 06:34:28;;;;;;;0.63;0.20;;;;;;;20.29;59.48;100126.06;5043237;28;20427;-68
2021/09/23 06:36:54;;;;;;;0.20;0.10;;;;;;;20.34;59.78;100109.97;5034422;28;20379;-68
2021/09/23 06:39:20;;;;;;;1.52;0.32;;;;;;;20.36;59.31;100099.69;5034325;28;20025;-66
2021/09/23 06:41:45;;;;;;;0.40;0.10;;;;;;;20.40;58.22;100079.09;5034251;28;20439;-68
2021/09/23 06:44:11;;;;;;;0.77;0.17;;;;;;;20.38;59.06;100081.19;5034089;28;20029;-66
2021/09/23 06:46:36;;;;;;;1.48;0.10;;;;;;;20.31;59.81;100077.56;5033963;28;20044;-68
2021/09/23 06:49:03;;;;;;;0.50;0.05;;;;;;;20.37;59.60;100074.06;5033098;28;20116;-67
2021/09/23 06:51:28;;;;;;;0.15;0.15;;;;;;;20.37;58.97;100076.78;5047895;28;20029;-67
2021/09/23 06:53:54;;;;;;;0.77;0.10;;;;;;;20.32;59.87;100065.63;5044529;28;20013;-68
2021/09/23 06:56:20;;;;;;;0.45;0.10;;;;;;;20.35;59.38;100057.03;5037631;28;20022;-67
2021/09/23 06:58:45;;;;;;;0.50;0.17;;;;;;;20.33;58.50;100040.03;5036716;28;20345;-67
2021/09/23 07:01:11;;;;;;;0.85;0.10;;;;;;;20.35;58.46;100037.94;5035774;28;20037;-67
2021/09/23 07:03:36;;;;;;;0.10;0.03;;;;;;;20.40;58.73;100014.44;5049612;28;20024;-68
2021/09/23 07:06:02;;;;;;;0.80;0.10;;;;;;;20.36;59.23;100012.31;5054160;28;20045;-68
2021/09/23 07:08:28;;;;;;;0.35;0.13;;;;;;;20.42;60.02;100006.06;5052619;28;20081;-68
2021/09/23 07:10:54;;;;;;;0.35;0.10;;;;;;;20.43;58.90;99991.38;5037310;28;20495;-67
2021/09/23 07:13:19;;;;;;;1.20;0.28;;;;;;;20.42;58.72;99989.69;5047708;28;20028;-68
2021/09/23 07:15:45;;;;;;;0.20;0.10;;;;;;;20.36;60.67;99985.03;5054186;28;20039;-68
2021/09/23 07:18:11;;;;;;;0.50;0.10;;;;;;;20.36;60.09;99982.31;5055634;28;20108;-67
2021/09/23 07:20:36;;;;;;;0.98;0.10;;;;;;;20.43;58.85;99975.81;5053339;28;20058;-68
2021/09/23 07:23:02;;;;;;;0.60;0.20;;;;;;;20.41;59.73;99971.63;5033039;28;20028;-70
2021/09/23 07:25:28;;;;;;;0.25;0.20;;;;;;;20.41;58.99;99966.16;5034359;28;20061;-67
2021/09/23 07:27:54;;;;;;;0.45;0.10;;;;;;;20.43;59.11;99953.16;5035457;28;20471;-67
2021/09/23 07:30:22;;;;;;;0.13;0.10;;;;;;;20.37;60.04;99949.34;5040142;28;20094;-68
2021/09/23 07:32:48;;;;;;;0.70;0.13;;;;;;;20.38;59.81;99940.09;5060237;28;20036;-69
2021/09/23 07:35:13;;;;;;;0.20;0.10;;;;;;;20.44;59.32;99938.44;5049319;28;20426;-68
2021/09/23 07:37:40;;;;;;;0.10;0.10;;;;;;;20.45;59.67;99931.09;5022798;28;20021;-67
2021/09/23 07:40:07;;;;;;;0.43;0.05;;;;;;;20.44;58.77;99933.00;5034108;28;20033;-67
2021/09/23 07:42:33;;;;;;;0.15;0.05;;;;;;;20.44;59.94;99922.06;5034036;28;20026;-67
2021/09/23 07:44:59;;;;;;;0.93;0.20;;;;;;;20.41;60.20;99917.03;5035993;28;20040;-65
2021/09/23 07:47:25;;;;;;;0.40;0.15;;;;;;;20.44;60.42;99911.16;5037470;28;20017;-69
2021/09/23 07:49:50;;;;;;;0.22;0.10;;;;;;;20.46;60.13;99902.75;5037610;28;20020;-67
2021/09/23 07:52:16;;;;;;;0.22;0.10;;;;;;;20.43;59.11;99904.00;5033201;28;20411;-67
2021/09/23 07:54:41;;;;;;;1.40;0.10;;;;;;;20.44;59.39;99897.50;5033832;28;20028;-67
2021/09/23 07:57:06;;;;;;;3.05;0.30;;;;;;;20.46;59.21;99881.75;5033629;28;20376;-67
2021/09/23 07:59:32;;;;;;;0.73;0.20;;;;;;;20.44;59.54;99878.41;5033677;28;20380;-66
2021/09/23 08:01:57;;;;;;;0.43;0.10;;;;;;;20.48;60.35;99874.19;5033676;28;20357;-66
2021/09/23 08:04:22;;;;;;;0.50;0.32;;;;;;;20.44;59.22;99856.56;5033520;28;20537;-64
2021/09/23 08:06:48;;;;;;;0.20;0.10;;;;;;;20.45;60.83;99852.78;5032809;28;20460;-67
2021/09/23 08:09:13;;;;;;;0.75;0.50;;;;;;;20.41;60.45;99840.59;5032839;28;20029;-68
2021/09/23 08:11:40;;;;;;;4.20;0.38;;;;;;;20.46;61.06;99826.31;5044690;28;20017;-69
2021/09/23 08:14:06;;;;;;;1.33;0.30;;;;;;;20.50;60.45;99828.44;5048901;28;20070;-68
2021/09/23 08:16:31;;;;;;;0.73;0.10;;;;;;;20.50;60.92;99817.50;5033444;28;20278;-68
2021/09/23 08:18:56;;;;;;;1.85;0.55;;;;;;;20.54;60.49;99823.38;5032649;28;20513;-68
2021/09/23 08:21:22;;;;;;;1.95;0.55;;;;;;;20.49;61.10;99804.91;5032844;28;20058;-67
2021/09/23 08:23:47;;;;;;;0.63;0.20;;;;;;;20.46;61.17;99788.94;5032402;28;20017;-68
2021/09/23 08:26:12;;;;;;;0.75;0.28;;;;;;;20.48;60.04;99775.91;5033070;28;20068;-68
2021/09/23 08:28:38;;;;;;;0.65;0.40;;;;;;;20.48;60.52;99773.19;5033373;28;20029;-68
2021/09/23 08:31:03;;;;;;;1.10;0.40;;;;;;;20.51;60.02;99759.13;5032685;28;20383;-68
2021/09/23 08:33:28;;;;;;;0.68;0.20;;;;;;;20.48;60.61;99762.25;5033194;28;20087;-68
2021/09/23 08:35:54;;;;;;;0.45;0.20;;;;;;;20.50;60.56;99756.63;5032891;28;20021;-67
2021/09/23 08:38:20;;;;;;;0.95;0.45;;;;;;;20.49;60.63;99753.03;5033074;28;20025;-67
2021/09/23 08:40:47;;;;;;;0.63;0.20;;;;;;;20.46;61.25;99739.78;5034381;28;20029;-65
2021/09/23 08:43:14;;;;;;;0.60;0.17;;;;;;;20.37;60.70;99732.84;5032637;28;20368;-67
2021/09/23 08:45:40;;;;;;;0.47;0.30;;;;;;;20.39;60.92;99733.47;5033389;28;20098;-67
2021/09/23 08:48:06;;;;;;;0.10;0.10;;;;;;;20.42;60.42;99722.16;5032149;28;20476;-68
2021/09/23 08:50:31;;;;;;;0.93;0.20;;;;;;;20.39;61.81;99714.38;5037826;28;20043;-68
2021/09/23 08:52:59;;;;;;;0.77;0.30;;;;;;;20.35;61.98;99705.78;5055012;28;20033;-68
2021/09/23 08:55:30;;;;;;;1.50;0.20;;;;;;;20.37;61.82;99698.22;5033030;28;20036;-68
2021/09/23 08:57:58;;;;;;;1.55;0.20;;;;;;;20.40;62.17;99694.22;5033314;28;20036;-67
2021/09/23 09:00:24;;;;;;;0.43;0.13;;;;;;;20.37;61.43;99681.84;5038628;28;20021;-67
2021/09/23 09:03:18;;;;;;;1.00;0.20;;;;;;;20.38;61.73;99669.03;5032667;28;20101;-67
2021/09/23 09:05:52;;;;;;;0.70;0.13;;;;;;;20.40;61.76;99656.84;4956948;28;20063;-68
2021/09/23 09:08:18;;;;;;;0.23;0.23;;;;;;;20.40;62.19;99650.53;4959535;28;20046;-67
2021/09/23 09:10:43;;;;;;;0.47;0.13;;;;;;;20.35;62.44;99639.44;4960191;28;20034;-67
2021/09/23 09:13:09;;;;;;;0.32;0.20;;;;;;;20.37;61.84;99626.41;4935873;28;20027;-67
2021/09/23 09:15:36;;;;;;;0.20;0.10;;;;;;;20.37;61.63;99624.50;4952481;28;20042;-68
2021/09/23 09:18:19;;;;;;;1.25;0.17;;;;;;;20.38;61.19;99592.59;4970836;28;20031;-68
2021/09/23 09:20:51;;;;;;;0.50;0.20;;;;;;;20.44;60.92;99594.50;4955274;28;20030;-68
2021/09/23 09:23:16;;;;;;;1.42;0.10;;;;;;;20.47;61.32;99588.59;4951610;29;20135;-67
2021/09/23 09:25:42;;;;;;;0.80;0.17;;;;;;;20.45;60.42;99568.88;4936664;29;20031;-65
2021/09/23 09:28:07;;;;;;;0.17;0.10;;;;;;;20.48;61.11;99567.59;4951668;29;20035;-68
2021/09/23 09:30:33;;;;;;;0.13;0.10;;;;;;;20.41;61.38;99554.81;4950984;29;20557;-67
2021/09/23 09:33:07;;;;;;;0.10;0.10;;;;;;;20.40;61.27;99535.91;4969349;29;20094;-68
2021/09/23 09:35:34;;;;;;;1.10;0.20;;;;;;;20.39;60.97;99531.50;4957063;28;20047;-67
2021/09/23 09:38:02;;;;;;;0.25;0.10;;;;;;;20.41;60.51;99516.59;4964010;28;20026;-68
2021/09/23 09:40:32;;;;;;;0.65;0.10;;;;;;;20.42;60.92;99509.25;4974714;28;20038;-67
2021/09/23 09:43:03;;;;;;;0.65;0.20;;;;;;;20.40;61.19;99495.78;5025183;28;20041;-67
2021/09/23 09:45:28;;;;;;;1.05;0.17;;;;;;;20.38;61.25;99483.41;5034917;28;20025;-67
2021/09/23 09:47:56;;;;;;;1.90;0.25;;;;;;;20.38;62.64;99475.22;5036376;28;20067;-67
2021/09/23 09:50:28;;;;;;;0.70;0.30;;;;;;;20.42;60.45;99460.13;5042466;28;20057;-66
2021/09/23 09:53:07;;;;;;;0.20;0.10;;;;;;;20.42;62.00;99451.94;5035070;28;20096;-68
2021/09/23 09:55:41;;;;;;;0.43;0.17;;;;;;;20.45;62.26;99437.00;5025338;28;20080;-67
2021/09/23 09:58:08;;;;;;;0.47;0.38;;;;;;;20.44;62.31;99427.97;5034905;28;20029;-67
2021/09/23 10:00:36;;;;;;;0.30;0.10;;;;;;;20.47;60.79;99418.50;5034785;28;20030;-69
2021/09/23 10:03:03;;;;;;;0.98;0.20;;;;;;;20.45;61.18;99413.28;5050700;28;20464;-68
2021/09/23 10:05:29;;;;;;;0.10;0.10;;;;;;;20.46;61.32;99401.31;5053960;28;20029;-68
2021/09/23 10:07:56;;;;;;;0.40;0.20;;;;;;;20.46;60.87;99395.84;5042138;28;20041;-67
2021/09/23 10:10:28;;;;;;;1.17;0.20;;;;;;;20.47;60.80;99381.13;5036423;28;20145;-68
2021/09/23 10:12:56;;;;;;;0.70;0.13;;;;;;;20.48;60.86;99377.34;5028276;28;20465;-68
2021/09/23 10:15:22;;;;;;;0.20;0.15;;;;;;;20.41;60.27;99371.94;5017398;28;20113;-67
2021/09/23 10:17:49;;;;;;;0.30;0.20;;;;;;;20.37;59.07;99358.94;5015160;28;20453;-67
2021/09/23 10:20:20;;;;;;;1.25;0.10;;;;;;;20.37;59.56;99358.94;5015592;28;20484;-68
2021/09/23 10:22:46;;;;;;;0.22;0.20;;;;;;;20.30;58.89;99341.75;5015563;28;20056;-68
2021/09/23 10:25:22;;;;;;;0.40;0.10;;;;;;;20.35;59.00;99340.06;5015741;28;20076;-67
2021/09/23 10:27:58;;;;;;;2.03;0.20;;;;;;;20.32;58.77;99328.72;5015546;28;20386;-68
2021/09/23 10:30:37;;;;;;;0.75;0.20;;;;;;;20.22;59.01;99315.56;5015567;28;20029;-66
2021/09/23 10:33:03;;;;;;;0.55;0.20;;;;;;;20.27;58.86;99304.00;5014925;28;20080;-67
2021/09/23 10:35:30;;;;;;;0.80;0.20;;;;;;;20.25;58.78;99295.19;5015171;28;20088;-67
2021/09/23 10:38:01;;;;;;;1.00;0.20;;;;;;;20.18;58.02;99283.50;5015059;28;20473;-68
2021/09/23 10:40:28;;;;;;;0.40;0.10;;;;;;;20.19;58.77;99268.81;5003187;28;20057;-65
2021/09/23 10:43:01;;;;;;;0.00;0.00;;;;;;;20.23;57.43;99259.09;5015434;28;20105;-66
2021/09/23 10:45:27;;;;;;;0.50;0.10;;;;;;;20.24;58.18;99258.88;5015191;28;20045;-67
2021/09/23 10:47:59;;;;;;;0.20;0.20;;;;;;;20.18;58.30;99261.69;5017868;28;20037;-69
2021/09/23 10:50:31;;;;;;;0.30;0.10;;;;;;;20.23;58.38;99256.38;5033688;28;20034;-68
2021/09/23 10:52:57;;;;;;;1.38;0.38;;;;;;;20.18;58.32;99250.75;5032368;28;20037;-66
2021/09/23 10:55:28;;;;;;;0.73;0.10;;;;;;;20.12;59.32;99236.94;5049117;28;20463;-66
2021/09/23 10:57:55;;;;;;;0.32;0.10;;;;;;;20.16;59.53;99231.06;5021854;28;20029;-67
2021/09/23 11:00:29;;;;;;;0.75;0.00;;;;;;;20.19;58.06;99215.06;5033769;28;20025;-68
2021/09/23 11:02:55;;;;;;;0.65;0.40;;;;;;;20.20;58.06;99211.28;5040344;28;20033;-67
2021/09/23 11:05:22;;;;;;;0.68;0.20;;;;;;;20.13;58.81;99211.31;5042794;28;20025;-66
2021/09/23 11:07:49;;;;;;;0.35;0.10;;;;;;;20.10;58.88;99209.03;5039330;28;20499;-67
2021/09/23 11:10:24;;;;;;;0.60;0.20;;;;;;;20.07;58.15;99193.13;5034521;28;20028;-68
2021/09/23 11:12:56;;;;;;;0.98;0.65;;;;;;;20.07;59.40;99190.41;5034661;28;20029;-66
2021/09/23 11:15:25;;;;;;;1.10;0.00;;;;;;;20.13;58.06;99178.56;5042900;28;20048;-67
2021/09/23 11:17:51;;;;;;;0.68;0.10;;;;;;;20.07;58.73;99163.13;5054403;28;20048;-67
2021/09/23 11:20:20;;;;;;;0.20;0.10;;;;;;;20.10;58.00;99172.75;5054032;28;20099;-66
2021/09/23 11:23:08;;;;;;;0.30;0.10;;;;;;;20.11;58.38;99156.16;5040233;28;20112;-66
2021/09/23 11:25:37;;;;;;;1.00;0.20;;;;;;;20.12;58.36;99133.25;5034426;28;20496;-66
2021/09/23 11:28:03;;;;;;;0.57;0.25;;;;;;;20.06;57.75;99128.72;5036481;28;20025;-68
2021/09/23 11:30:32;;;;;;;0.52;0.30;;;;;;;20.15;59.06;99131.97;5047290;28;20060;-65
2021/09/23 11:33:00;;;;;;;0.32;0.13;;;;;;;20.19;58.89;99126.94;5050425;28;20038;-67